Flight Track Log - Related Links

Times and Time Zones

All times are in EDT time to prevent confusion due to time zone crossing. See the RZO200 flight status page for this flight to view local times or setup timezone preferences in your user account.

Time Position Orientation Groundspeed Altitude Reporting Facility
EDT Latitude Longitude Course Direction KTS MPH feet Rate Location/Type
Sun 09:07:14 PM 42.3211 -70.9014 80° East 218 251 3,100  Level Boston Center
Sun 09:08:14 PM 42.3325 -70.8111 91° East 235 270 6,300 2,900 Climbing Boston Center
Sun 09:09:14 PM 42.3311 -70.7269 95° East 251 289 8,900 2,450 Climbing Boston Center
Sun 09:10:14 PM 42.3231 -70.6064 96° East 278 320 11,200 2,200 Climbing Boston Center
Sun 09:11:14 PM 42.3125 -70.4664 91° East 325 374 13,300 2,300 Climbing Boston Center
Sun 09:12:14 PM 42.3097 -70.3231 90° East 363 418 15,800 2,350 Climbing Boston Center
Sun 09:13:14 PM 42.3089 -70.1717 92° East 385 443 18,000 2,050 Climbing Boston Center
Sun 09:14:14 PM 42.3056 -70.0117 92° East 406 467 19,900 1,750 Climbing Boston Center
Sun 09:15:14 PM 42.3017 -69.8378 91° East 434 499 21,500 1,700 Climbing Boston Center
Sun 09:16:14 PM 42.2994 -69.6469 92° East 450 518 23,300 1,800 Climbing Boston Center
Sun 09:17:14 PM 42.2947 -69.4647 94° East 470 541 25,100 1,700 Climbing Boston Center
Sun 09:18:14 PM 42.2861 -69.2967 95° East 479 551 26,700 1,250 Climbing Boston Center
Sun 09:19:14 PM 42.2739 -69.0925 91° East 490 564 27,600 1,200 Climbing Boston Center
Sun 09:20:14 PM 42.2725 -68.9100 92° East 505 581 29,100 1,500 Climbing Boston Center
Sun 09:21:14 PM 42.2661 -68.7139 92° East 516 594 30,600 1,500 Climbing Boston Center
Sun 09:22:14 PM 42.2597 -68.5178 93° East 516 594 32,100 1,200 Climbing Boston Center
Sun 09:23:14 PM 42.2528 -68.3247 93° East 516 594 33,000 450 Climbing Boston Center
Sun 09:24:14 PM 42.2456 -68.1317 93° East 516 594 33,000  Level Boston Center
Sun 09:25:14 PM 42.2383 -67.9442 93° East 511 588 33,000  Level Boston Center
Sun 09:26:14 PM 42.2306 -67.7539 93° East 511 588 33,000  Level Boston Center
Sun 09:27:14 PM 42.2222 -67.5581 93° East 511 588 33,000  Level Boston Center
Sun 09:28:14 PM 42.2142 -67.3708 94° East 511 588 33,000  Level Boston Center
Sun 09:29:14 PM 42.2053 -67.1808 91° East 511 588 33,000  Level Boston Center
Sun 09:30:40 PM 42.2000 -66.9000 76° East 490 564 33,000  Level Moncton Center
Sun 09:31:40 PM 42.2333 -66.7167 66° East 470 541 33,000  Level Moncton Center
Sun 09:32:40 PM 42.2833 -66.5667 75° East 470 541 33,000  Level Moncton Center
Sun 09:33:40 PM 42.3167 -66.4000 75° East 460 529 33,000  Level Moncton Center
Sun 09:34:40 PM 42.3500 -66.2333 75° East 460 529 33,000  Level Moncton Center
Sun 09:35:40 PM 42.3833 -66.0667 70° East 470 541 33,000  Level Moncton Center
Sun 09:36:40 PM 42.4333 -65.8833 68° East 470 541 33,000  Level Moncton Center
Sun 09:37:40 PM 42.4833 -65.7167 75° East 480 552 33,000  Level Moncton Center
Sun 09:38:40 PM 42.5167 -65.5500 76° East 460 529 33,000  Level Moncton Center
Sun 09:39:40 PM 42.5500 -65.3667 76° East 470 541 33,000  Level Moncton Center
Sun 09:40:40 PM 42.5833 -65.1833 73° East 480 552 33,000  Level Moncton Center
Sun 09:41:40 PM 42.6167 -65.0333 75° East 470 541 33,000  Level Moncton Center
Sun 09:42:40 PM 42.6500 -64.8667 75° East 470 541 33,000  Level Moncton Center
Sun 09:43:40 PM 42.6833 -64.7000 75° East 460 529 33,000  Level Moncton Center
Sun 09:44:40 PM 42.7167 -64.5333 76° East 470 541 33,000  Level Moncton Center
Sun 09:45:40 PM 42.7500 -64.3500 76° East 470 541 33,000  Level Moncton Center
Sun 09:46:40 PM 42.7833 -64.1667 70° East 480 552 33,000  Level Moncton Center
Sun 09:47:40 PM 42.8333 -63.9833 73° East 480 552 33,000  Level Moncton Center
Sun 09:48:40 PM 42.8667 -63.8333 76° East 480 552 33,000  Level Moncton Center
Sun 09:49:40 PM 42.9000 -63.6500 75° East 480 552 33,000  Level Moncton Center
Sun 09:50:40 PM 42.9333 -63.4833 76° East 470 541 33,000  Level Moncton Center
Sun 09:51:40 PM 42.9667 -63.3000 75° East 470 541 33,000  Level Moncton Center
Sun 09:52:40 PM 43.0000 -63.1333 83° East 470 541 33,000  Level Moncton Center
Sun 09:53:40 PM 43.0167 -62.9500 73° East 470 541 33,000  Level Moncton Center
Sun 09:54:40 PM 43.0500 -62.8000 76° East 460 529 33,000  Level Moncton Center
Sun 09:55:40 PM 43.0833 -62.6167 75° East 470 541 33,000  Level Moncton Center
Sun 09:56:40 PM 43.1167 -62.4500 75° East 460 529 33,000  Level Moncton Center
Sun 09:57:40 PM 43.1500 -62.2833 69° East 460 529 33,000  Level Moncton Center
Sun 09:58:40 PM 43.2000 -62.1000 81° East 470 541 33,000  Level Moncton Center
Sun 09:59:40 PM 43.2167 -61.9500 76° East 470 541 33,000  Level Moncton Center
Sun 10:00:40 PM 43.2500 -61.7667 75° East 460 529 33,000  Level Moncton Center
Sun 10:01:40 PM 43.2833 -61.6000 76° East 460 529 33,000  Level Moncton Center
Sun 10:02:40 PM 43.3167 -61.4167 82° East 460 529 33,000  Level Moncton Center
Sun 10:03:40 PM 43.3333 -61.2500 76° East 460 529 33,000  Level Moncton Center
Sun 10:04:40 PM 43.3667 -61.0667 75° East 450 518 33,000 200 Level Moncton Center
Sun 10:05:40 PM 43.4000 -60.9000 82° East 450 518 33,400 500 Climbing Moncton Center
Sun 10:06:40 PM 43.4167 -60.7333 76° East 460 529 34,000 600 Climbing Moncton Center
Sun 10:07:40 PM 43.4500 -60.5500 75° East 470 541 34,600 500 Climbing Moncton Center
Sun 10:08:40 PM 43.4833 -60.3833 83° East 460 529 35,000 200 Climbing Moncton Center
Sun 10:09:40 PM 43.5000 -60.2000 75° East 460 529 35,000  Level Moncton Center
Sun 10:10:40 PM 43.5333 -60.0333 83° East 460 529 35,000  Level Moncton Center
Sun 10:11:40 PM 43.5500 -59.8500 75° East 460 529 35,000  Level Moncton Center
Sun 10:12:40 PM 43.5833 -59.6833 71° East 460 529 35,000  Level Moncton Center
Sun 10:13:53 PM 43.6333 -59.4833 76° East 460 529 35,000  Level Gander Center
Sun 10:14:53 PM 43.6667 -59.3000 90° East 470 541 35,000  Level Gander Center
Sun 10:15:53 PM 43.6667 -59.1500 74° East 460 529 35,000  Level Gander Center
Sun 10:16:40 PM 43.7000 -58.9833 74° East 460 529 35,000  Level Moncton Center
Sun 10:17:40 PM 43.7333 -58.8167 83° East 470 541 35,000  Level Moncton Center
Sun 10:18:40 PM 43.7500 -58.6333 74° East 470 541 35,000  Level Moncton Center
Sun 10:19:40 PM 43.7833 -58.4667 82° East 460 529 35,000  Level Moncton Center
Sun 10:20:40 PM 43.8000 -58.3000 82° East 470 541 35,000  Level Moncton Center
Sun 10:21:40 PM 43.8167 -58.1333 76° East 460 529 35,000  Level Moncton Center
Sun 10:22:40 PM 43.8500 -57.9500 82° East 450 518 35,000  Level Moncton Center
Sun 10:23:40 PM 43.8667 -57.7833 76° East 450 518 35,000  Level Moncton Center
Sun 10:24:40 PM 43.9000 -57.6000 82° East 440 506 35,000  Level Moncton Center
Sun 10:25:40 PM 43.9167 -57.4333 82° East 450 518 35,000  Level Moncton Center
Sun 10:26:40 PM 43.9333 -57.2667 74° East 450 518 35,000  Level Moncton Center
Sun 10:27:40 PM 43.9667 -57.1000 82° East 450 518 35,000  Level Moncton Center
Sun 10:28:40 PM 43.9833 -56.9333 83° East 440 506 35,000  Level Moncton Center
Sun 10:29:40 PM 44.0000 -56.7500 74° East 460 529 35,000  Level Moncton Center
Sun 10:30:40 PM 44.0333 -56.5833 90° East 450 518 35,000  Level Moncton Center
Sun 10:31:40 PM 44.0333 -56.4000 83° East 450 518 35,000  Level Moncton Center
Sun 10:35:01 PM 44.0833 -55.8000 81° East 440 506 35,000  Level Gander Center
Sun 10:36:01 PM 44.1000 -55.6500 86° East 450 518 35,000  Level Gander Center
Sun 10:38:01 PM 44.1167 -55.3000 85° East 460 529 35,000  Level Gander Center
Sun 10:41:20 PM 44.1500 -54.7167 90° East 440 506 35,000  Level Gander Center
Sun 10:46:20 PM 44.1500 -53.8167 90° East 440 506 35,000  Level Gander Center
Sun 10:47:20 PM 44.1500 -53.6667 83° East 460 529 35,000  Level Gander Center
Sun 10:48:20 PM 44.1667 -53.4667 90° East 450 518 35,000  Level Gander Center
Sun 10:49:20 PM 44.1667 -53.2833 99° East 450 518 35,000  Level Gander Center
Sun 10:50:20 PM 44.1500 -53.1333 90° East 450 518 35,000  Level Gander Center
Sun 10:51:20 PM 44.1500 -52.9333 90° East 460 529 35,000  Level Gander Center
Sun 10:52:20 PM 44.1500 -52.7833 82° East 450 518 35,000  Level Gander Center
Sun 10:53:20 PM 44.1667 -52.6167 97° East 470 541 35,000  Level Gander Center
Sun 10:54:20 PM 44.1500 -52.4333 90° East 450 518 35,000  Level Gander Center
Sun 10:55:20 PM 44.1500 -52.2500 98° East 450 518 35,000  Level Gander Center
Sun 10:56:20 PM 44.1333 -52.0833 97° East 460 529 35,000  Level Gander Center
Sun 10:57:20 PM 44.1167 -51.9000 93° East 460 529 35,000  Level Gander Center
Sun 10:59:44 PM 44.1000 -51.4833 276° West 450 518 35,000  Level Gander Center
Sun 11:00:04 PM 44.1667 -52.4333 95° East 453 521 35,000  Level New York Oceanic (ODAPS)
Sun 11:00:44 PM 44.0833 -51.3000 276° West 460 529 35,000  Level Gander Center
Sun 11:00:58 PM 44.1667 -52.4333 96° East 453 521 35,000  Level New York Oceanic (ODAPS)
Sun 11:01:44 PM 44.0667 -51.1333 90° East 450 518 35,000  Level Gander Center
Sun 11:02:44 PM 44.0667 -50.9667 97° East 450 518 35,000  Level Gander Center
Sun 11:03:44 PM 44.0500 -50.7833 95° East 450 518 35,000  Level Gander Center
Sun 11:10:47 PM 44.0000 -50.0000 102° East 456 525 35,000 -15 Level New York Oceanic (ODAPS)
Mon 12:10:29 AM 42.0000 -40.0000 94° East 468 539 34,000  Descending ETMS Enhanced Traffic Management System
Mon 12:10:32 AM 41.9741 -39.5498 95° East 456 525 35,000 952 Climbing FlightAware Transoceanic
Mon 12:11:32 AM 41.9635 -39.3722 95° East 456 525 35,000  Level FlightAware Transoceanic
Mon 12:12:32 AM 41.9525 -39.1946 95° East 456 525 35,000  Level FlightAware Transoceanic
Mon 12:13:32 AM 41.9412 -39.0172 95° East 456 525 35,000  Level FlightAware Transoceanic
Mon 12:14:32 AM 41.9297 -38.8397 95° East 456 525 35,000 -250 Level FlightAware Transoceanic
Mon 12:17:32 AM 41.8956 -38.3370 95° East 468 539 34,000 -250 Descending FlightAware Transoceanic
Mon 12:18:32 AM 41.8833 -38.1629 95° East 468 539 34,000  Level FlightAware Transoceanic
Mon 12:19:32 AM 41.8707 -37.9889 96° East 468 539 34,000  Level FlightAware Transoceanic
Mon 12:20:32 AM 41.8578 -37.8149 96° East 468 539 34,000  Level FlightAware Transoceanic
Mon 12:21:32 AM 41.8447 -37.6410 96° East 468 539 34,000  Level FlightAware Transoceanic
Mon 12:22:32 AM 41.8313 -37.4672 96° East 468 539 34,000  Level FlightAware Transoceanic
Mon 12:23:32 AM 41.8176 -37.2934 96° East 468 539 34,000  Level FlightAware Transoceanic
Mon 12:24:32 AM 41.8037 -37.1197 96° East 468 539 34,000  Level FlightAware Transoceanic
Mon 12:25:32 AM 41.7896 -36.9461 96° East 468 539 34,000  Level FlightAware Transoceanic
Mon 12:26:32 AM 41.7751 -36.7726 96° East 468 539 34,000  Level FlightAware Transoceanic
Mon 12:27:32 AM 41.7604 -36.5991 97° East 468 539 34,000  Level FlightAware Transoceanic
Mon 12:28:32 AM 41.7455 -36.4258 97° East 468 539 34,000  Level FlightAware Transoceanic
Mon 12:29:32 AM 41.7303 -36.2525 97° East 468 539 34,000  Level FlightAware Transoceanic
Mon 12:30:32 AM 41.7148 -36.0793 97° East 468 539 34,000  Level FlightAware Transoceanic
Mon 12:31:32 AM 41.6990 -35.9062 97° East 468 539 34,000  Level FlightAware Transoceanic
Mon 12:32:32 AM 41.6830 -35.7331 97° East 468 539 34,000  Level FlightAware Transoceanic
Mon 12:33:32 AM 41.6668 -35.5602 97° East 468 539 34,000  Level FlightAware Transoceanic
Mon 12:34:32 AM 41.6503 -35.3873 97° East 468 539 34,000  Level FlightAware Transoceanic
Mon 12:35:32 AM 41.6335 -35.2145 97° East 468 539 34,000  Level FlightAware Transoceanic
Mon 12:36:32 AM 41.6165 -35.0419 98° East 468 539 34,000  Level FlightAware Transoceanic
Mon 12:37:32 AM 41.5992 -34.8693 98° East 468 539 34,000  Level FlightAware Transoceanic
Mon 12:38:32 AM 41.5816 -34.6968 98° East 468 539 34,000  Level FlightAware Transoceanic
Mon 12:39:32 AM 41.5638 -34.5244 98° East 468 539 34,000  Level FlightAware Transoceanic
Mon 12:40:32 AM 41.5457 -34.3521 98° East 468 539 34,000  Level FlightAware Transoceanic
Mon 12:41:32 AM 41.5274 -34.1799 98° East 468 539 34,000  Level FlightAware Transoceanic
Mon 12:42:32 AM 41.5089 -34.0077 98° East 468 539 34,000  Level FlightAware Transoceanic
Mon 12:43:32 AM 41.4900 -33.8357 98° East 468 539 34,000  Level FlightAware Transoceanic
Mon 12:44:32 AM 41.4709 -33.6638 98° East 468 539 34,000  Level FlightAware Transoceanic
Mon 12:45:32 AM 41.4516 -33.4920 99° East 468 539 34,000  Level FlightAware Transoceanic
Mon 12:46:32 AM 41.4320 -33.3203 99° East 468 539 34,000  Level FlightAware Transoceanic
Mon 12:47:32 AM 41.4121 -33.1487 99° East 468 539 34,000  Level FlightAware Transoceanic
Mon 12:48:32 AM 41.3920 -32.9772 99° East 468 539 34,000  Level FlightAware Transoceanic
Mon 12:49:32 AM 41.3716 -32.8058 99° East 468 539 34,000  Level FlightAware Transoceanic
Mon 12:50:32 AM 41.3510 -32.6345 99° East 468 539 34,000  Level FlightAware Transoceanic
Mon 12:51:32 AM 41.3302 -32.4634 99° East 468 539 34,000  Level FlightAware Transoceanic
Mon 12:52:32 AM 41.3090 -32.2923 99° East 468 539 34,000  Level FlightAware Transoceanic
Mon 12:53:32 AM 41.2876 -32.1213 100° East 468 539 34,000  Level FlightAware Transoceanic
Mon 12:54:32 AM 41.2660 -31.9505 100° East 468 539 34,000  Level FlightAware Transoceanic
Mon 12:55:32 AM 41.2441 -31.7798 100° East 468 539 34,000  Level FlightAware Transoceanic
Mon 12:56:32 AM 41.2220 -31.6092 100° East 468 539 34,000  Level FlightAware Transoceanic
Mon 12:57:32 AM 41.1996 -31.4387 100° East 468 539 34,000  Level FlightAware Transoceanic
Mon 12:58:32 AM 41.1769 -31.2683 100° East 468 539 34,000  Level FlightAware Transoceanic
Mon 12:59:32 AM 41.1541 -31.0981 100° East 468 539 34,000  Level FlightAware Transoceanic
Mon 01:00:32 AM 41.1309 -30.9279 100° East 468 539 34,000  Level FlightAware Transoceanic
Mon 01:01:32 AM 41.1075 -30.7579 100° East 468 539 34,000  Level FlightAware Transoceanic
Mon 01:02:32 AM 41.0839 -30.5880 101° East 468 539 34,000  Level FlightAware Transoceanic
Mon 01:03:32 AM 41.0600 -30.4182 101° East 468 539 34,000  Level FlightAware Transoceanic
Mon 01:04:32 AM 41.0359 -30.2486 87° East 468 539 34,000  Level FlightAware Transoceanic
Mon 01:05:32 AM 41.0428 -30.0746 109° East  Level FlightAware Approximate
Mon 01:06:32 AM 41.0034 -29.9198 90° East  Level FlightAware Approximate
Mon 01:07:32 AM 41.0029 -29.7457 90° East  Level FlightAware Approximate
Mon 01:08:32 AM 41.0022 -29.5716 90° East  Level FlightAware Approximate
Mon 01:09:32 AM 41.0011 -29.3975 91° East  Level FlightAware Approximate
Mon 01:10:32 AM 40.9999 -29.2234 91° East  Level FlightAware Approximate
Mon 01:11:32 AM 40.9983 -29.0493 91° East  Level FlightAware Approximate
Mon 01:12:32 AM 40.9965 -28.8752 91° East  Level FlightAware Approximate
Mon 01:13:32 AM 40.9944 -28.7012 91° East  Level FlightAware Approximate
Mon 01:14:32 AM 40.9921 -28.5271 91° East  Level FlightAware Approximate
Mon 01:15:32 AM 40.9894 -28.3531 91° East  Level FlightAware Approximate
Mon 01:16:32 AM 40.9866 -28.1791 91° East  Level FlightAware Approximate
Mon 01:17:32 AM 40.9835 -28.0051 91° East  Level FlightAware Approximate
Mon 01:18:32 AM 40.9801 -27.8311 92° East  Level FlightAware Approximate
Mon 01:19:32 AM 40.9764 -27.6571 92° East  Level FlightAware Approximate
Mon 01:20:32 AM 40.9725 -27.4832 92° East  Level FlightAware Approximate
Mon 01:21:32 AM 40.9683 -27.3092 92° East  Level FlightAware Approximate
Mon 01:22:32 AM 40.9639 -27.1353 92° East  Level FlightAware Approximate
Mon 01:23:32 AM 40.9592 -26.9614 92° East  Level FlightAware Approximate
Mon 01:24:32 AM 40.9542 -26.7876 92° East  Level FlightAware Approximate
Mon 01:25:32 AM 40.9490 -26.6137 92° East  Level FlightAware Approximate
Mon 01:26:32 AM 40.9435 -26.4399 92° East  Level FlightAware Approximate
Mon 01:27:32 AM 40.9378 -26.2662 93° East  Level FlightAware Approximate
Mon 01:28:32 AM 40.9318 -26.0924 93° East  Level FlightAware Approximate
Mon 01:29:32 AM 40.9255 -25.9187 93° East  Level FlightAware Approximate
Mon 01:30:32 AM 40.9190 -25.7450 93° East  Level FlightAware Approximate
Mon 01:31:32 AM 40.9122 -25.5714 93° East  Level FlightAware Approximate
Mon 01:32:32 AM 40.9052 -25.3978 93° East  Level FlightAware Approximate
Mon 01:33:32 AM 40.8979 -25.2242 93° East  Level FlightAware Approximate
Mon 01:34:32 AM 40.8903 -25.0507 93° East  Level FlightAware Approximate
Mon 01:35:32 AM 40.8825 -24.8772 93° East  Level FlightAware Approximate
Mon 01:36:32 AM 40.8744 -24.7037 94° East  Level FlightAware Approximate
Mon 01:37:32 AM 40.8661 -24.5303 94° East  Level FlightAware Approximate
Mon 01:38:32 AM 40.8574 -24.3570 94° East  Level FlightAware Approximate
Mon 01:39:32 AM 40.8486 -24.1836 94° East  Level FlightAware Approximate
Mon 01:40:32 AM 40.8395 -24.0104 94° East  Level FlightAware Approximate
Mon 01:41:32 AM 40.8301 -23.8372 94° East  Level FlightAware Approximate
Mon 01:42:32 AM 40.8204 -23.6640 94° East  Level FlightAware Approximate
Mon 01:43:32 AM 40.8106 -23.4909 94° East  Level FlightAware Approximate
Mon 01:44:32 AM 40.8004 -23.3178 94° East  Level FlightAware Approximate
Mon 01:45:32 AM 40.7900 -23.1448 95° East  Level FlightAware Approximate
Mon 01:46:32 AM 40.7793 -22.9718 95° East  Level FlightAware Approximate
Mon 01:47:32 AM 40.7684 -22.7989 95° East  Level FlightAware Approximate
Mon 01:48:32 AM 40.7572 -22.6261 95° East  Level FlightAware Approximate
Mon 01:49:32 AM 40.7457 -22.4533 95° East  Level FlightAware Approximate
Mon 01:50:32 AM 40.7340 -22.2806 95° East  Level FlightAware Approximate
Mon 01:51:32 AM 40.7221 -22.1079 95° East  Level FlightAware Approximate
Mon 01:52:32 AM 40.7098 -21.9353 95° East  Level FlightAware Approximate
Mon 01:53:32 AM 40.6974 -21.7628 96° East  Level FlightAware Approximate
Mon 01:54:32 AM 40.6846 -21.5903 96° East  Level FlightAware Approximate
Mon 01:55:32 AM 40.6716 -21.4179 96° East  Level FlightAware Approximate
Mon 01:56:32 AM 40.6584 -21.2456 96° East  Level FlightAware Approximate
Mon 01:57:32 AM 40.6449 -21.0733 96° East  Level FlightAware Approximate
Mon 01:58:32 AM 40.6311 -20.9011 96° East  Level FlightAware Approximate
Mon 01:59:32 AM 40.6171 -20.7290 96° East  Level FlightAware Approximate
Mon 02:00:32 AM 40.6028 -20.5569 96° East  Level FlightAware Approximate
Mon 02:01:32 AM 40.5883 -20.3849 98° East  Level FlightAware Approximate
Mon 02:02:32 AM 40.5705 -20.2135 98° East  Level FlightAware Approximate
Mon 02:03:32 AM 40.5525 -20.0422 98° East  Level FlightAware Approximate
Mon 02:04:32 AM 40.5342 -19.8710 98° East  Level FlightAware Approximate
Mon 02:05:32 AM 40.5156 -19.6999 98° East  Level FlightAware Approximate
Mon 02:06:32 AM 40.4968 -19.5288 98° East  Level FlightAware Approximate
Mon 02:07:32 AM 40.4778 -19.3579 98° East  Level FlightAware Approximate
Mon 02:08:32 AM 40.4585 -19.1871 99° East  Level FlightAware Approximate
Mon 02:09:32 AM 40.4389 -19.0163 99° East  Level FlightAware Approximate
Mon 02:10:32 AM 40.4191 -18.8457 99° East  Level FlightAware Approximate
Mon 02:11:32 AM 40.3990 -18.6751 99° East  Level FlightAware Approximate
Mon 02:12:32 AM 40.3787 -18.5047 99° East  Level FlightAware Approximate
Mon 02:13:32 AM 40.3582 -18.3344 99° East  Level FlightAware Approximate
Mon 02:14:32 AM 40.3373 -18.1642 99° East  Level FlightAware Approximate
Mon 02:15:32 AM 40.3163 -17.9940 99° East  Level FlightAware Approximate
Mon 02:16:32 AM 40.2950 -17.8240 99° East  Level FlightAware Approximate
Mon 02:17:32 AM 40.2734 -17.6541 100° East  Level FlightAware Approximate
Mon 02:18:32 AM 40.2513 -17.4844 100° East  Level FlightAware Approximate
Mon 02:19:32 AM 40.2289 -17.3148 100° East  Level FlightAware Approximate
Mon 02:20:32 AM 40.2063 -17.1453 100° East  Level FlightAware Approximate
Mon 02:21:32 AM 40.1835 -16.9759 100° East  Level FlightAware Approximate
Mon 02:22:32 AM 40.1604 -16.8066 100° East  Level FlightAware Approximate
Mon 02:23:32 AM 40.1370 -16.6374 100° East  Level FlightAware Approximate
Mon 02:24:32 AM 40.1134 -16.4684 100° East  Level FlightAware Approximate
Mon 02:25:32 AM 40.0895 -16.2995 101° East  Level FlightAware Approximate
Mon 02:26:32 AM 40.0654 -16.1307 101° East  Level FlightAware Approximate
Mon 02:27:32 AM 40.0411 -15.9620 101° East  Level FlightAware Approximate
Mon 02:28:32 AM 40.0165 -15.7934 101° East  Level FlightAware Approximate
Mon 02:29:32 AM 39.9917 -15.6250 101° East  Level FlightAware Approximate
Mon 02:30:32 AM 39.9666 -15.4567 101° East  Level FlightAware Approximate
Mon 02:31:32 AM 39.9413 -15.2885 101° East  Level FlightAware Approximate
Mon 02:32:32 AM 39.9158 -15.1204 50° Northeast  Level FlightAware Approximate
Mon 02:33:32 AM 39.9985 -14.9918 103° East  Level FlightAware Approximate
Mon 02:34:32 AM 39.9679 -14.8251 104° East  Level FlightAware Approximate
Mon 02:35:32 AM 39.9370 -14.6585 104° East  Level FlightAware Approximate
Mon 02:36:32 AM 39.9059 -14.4920 104° East  Level FlightAware Approximate
Mon 02:37:32 AM 39.8745 -14.3257 104° East  Level FlightAware Approximate
Mon 02:38:32 AM 39.8429 -14.1596 104° East  Level FlightAware Approximate
Mon 02:39:32 AM 39.8111 -13.9936 104° East  Level FlightAware Approximate
Mon 02:40:32 AM 39.7790 -13.8278 104° East  Level FlightAware Approximate
Mon 02:41:32 AM 39.7467 -13.6621 104° East  Level FlightAware Approximate
Mon 02:42:32 AM 39.7142 -13.4965 104° East  Level FlightAware Approximate
Mon 02:43:32 AM 39.6814 -13.3312 104° East  Level FlightAware Approximate
Mon 02:44:32 AM 39.6484 -13.1660 105° East  Level FlightAware Approximate
Mon 02:45:32 AM 39.6152 -13.0009 105° East  Level FlightAware Approximate
Mon 02:46:32 AM 39.5817 -12.8360 105° East  Level FlightAware Approximate
Mon 02:47:32 AM 39.5480 -12.6713 105° East  Level FlightAware Approximate
Mon 02:48:32 AM 39.5141 -12.5067 105° East  Level FlightAware Approximate
Mon 02:49:32 AM 39.4799 -12.3423 105° East  Level FlightAware Approximate
Mon 02:50:32 AM 39.4455 -12.1780 105° East  Level FlightAware Approximate
Mon 02:51:32 AM 39.4109 -12.0139 105° East  Level FlightAware Approximate
Mon 02:52:32 AM 39.3760 -11.8500 103° East  Level FlightAware Approximate
Mon 02:53:32 AM 39.3467 -11.6844 106° East  Level FlightAware Approximate
Mon 02:54:32 AM 39.3110 -11.5209 105° East  Level FlightAware Approximate
Mon 02:55:32 AM 39.2768 -11.3570 110° East  Level FlightAware Approximate
Mon 02:56:32 AM 39.2328 -11.1972 104° East  Level FlightAware Approximate
Mon 02:57:32 AM 39.1999 -11.0330 106° East  Level FlightAware Approximate
Mon 02:58:32 AM 39.1636 -10.8701 104° East  Level FlightAware Approximate
Mon 02:59:32 AM 39.1310 -10.7059 106° East  Level FlightAware Approximate
Mon 03:00:32 AM 39.0937 -10.5435 107° East  Level FlightAware Approximate
Mon 03:01:32 AM 39.0562 -10.3813 107° East  Level FlightAware Approximate
Mon 03:02:32 AM 39.0185 -10.2193 104° East  Level FlightAware Approximate
Mon 03:03:32 AM 38.9860 -10.0556 107° East  Level FlightAware Approximate
Mon 03:04:32 AM 38.9484 -9.8936 108° East  Level FlightAware Approximate
Mon 03:05:32 AM 38.9086 -9.7327 108° East  Level FlightAware Approximate
Mon 03:06:32 AM 38.8681 -9.5721 108° East  Level FlightAware Approximate
Mon 03:07:32 AM 38.8279 -9.4115 107° East  Level FlightAware Approximate
Mon 03:08:32 AM 38.7896 -9.2522 104° East  Level FlightAware Approximate
Mon 03:09:32 AM 38.7667 -9.1333 352° North  Level FlightAware Approximate
Mon 03:10:32 AM 38.8968 -9.1564 172° South  Level Estimated
Mon 03:11:32 AM 38.7667 -9.1333 352° North  Level FlightAware Approximate
Mon 03:12:32 AM 38.8968 -9.1564 172° South  Level Estimated
Mon 03:13:32 AM 38.7667 -9.1333 352° North  Level FlightAware Approximate
Mon 03:14:32 AM 38.8968 -9.1564 172° South  Level Estimated
Mon 03:15:32 AM 38.7667 -9.1333 352° North  Level FlightAware Approximate
Mon 03:16:32 AM 38.8968 -9.1564 172° South  Level Estimated
Mon 03:17:32 AM 38.7667 -9.1333 172° South  Level FlightAware Approximate

Login

Don't have an account? Register now (free) for customized features, flight alerts, and more!